createdAt,value
2022-08-03T00:02:27.400Z,100.00
2022-08-03T00:05:00.170Z,100.00
2022-08-03T00:07:33.146Z,100.00
2022-08-03T00:10:06.564Z,100.00
2022-08-03T00:12:40.013Z,100.00
2022-08-03T00:15:16.396Z,100.00
2022-08-03T00:17:52.472Z,100.00
2022-08-03T00:20:25.433Z,100.00
2022-08-03T00:22:58.280Z,100.00
2022-08-03T00:25:31.465Z,100.00
2022-08-03T00:28:08.120Z,100.00
2022-08-03T00:30:41.481Z,100.00
2022-08-03T00:33:14.836Z,100.00
2022-08-03T00:35:50.755Z,100.00
2022-08-03T00:38:22.943Z,100.00
2022-08-03T00:40:56.770Z,100.00
2022-08-03T00:43:29.604Z,100.00
2022-08-03T00:46:02.405Z,100.00
2022-08-03T00:48:35.556Z,100.00
2022-08-03T00:51:08.747Z,100.00
2022-08-03T00:53:42.218Z,100.00
2022-08-03T00:56:18.954Z,100.00
2022-08-03T00:58:52.051Z,100.00
2022-08-03T01:01:25.103Z,100.00
2022-08-03T01:03:57.870Z,100.00
2022-08-03T01:06:41.274Z,100.00
2022-08-03T01:09:51.083Z,100.00
2022-08-03T01:12:44.161Z,100.00
2022-08-03T01:15:24.428Z,100.00
2022-08-03T01:18:05.022Z,100.00
2022-08-03T01:20:42.012Z,100.00
2022-08-03T01:24:02.101Z,100.00
2022-08-03T01:26:51.368Z,100.00
2022-08-03T01:29:54.666Z,100.00
2022-08-03T01:33:03.059Z,100.00
2022-08-03T01:35:48.853Z,100.00
2022-08-03T01:38:32.624Z,100.00
2022-08-03T01:41:12.400Z,100.00
2022-08-03T01:44:26.463Z,100.00
2022-08-03T01:46:24.337Z,100.00
2022-08-03T01:48:58.019Z,100.00
2022-08-03T01:51:56.607Z,100.00
2022-08-03T01:54:07.347Z,100.00
2022-08-03T01:56:43.255Z,100.00
2022-08-03T01:59:17.534Z,100.00
2022-08-03T02:02:32.023Z,100.00
2022-08-03T02:04:27.063Z,100.00
2022-08-03T02:07:03.354Z,100.00
2022-08-03T02:09:38.752Z,100.00
2022-08-03T02:12:12.612Z,100.00
2022-08-03T02:14:46.672Z,100.00
2022-08-03T02:17:19.489Z,100.00
2022-08-03T02:19:55.104Z,100.00
2022-08-03T02:22:28.204Z,100.00
2022-08-03T02:25:01.220Z,100.00
2022-08-03T02:27:38.349Z,100.00
2022-08-03T02:30:11.862Z,100.00
2022-08-03T02:32:47.919Z,100.00
2022-08-03T02:35:22.532Z,100.00
2022-08-03T02:37:59.836Z,100.00
2022-08-03T02:40:34.275Z,100.00
2022-08-03T02:43:09.371Z,100.00
2022-08-03T02:45:45.685Z,100.00
2022-08-03T02:48:25.897Z,100.00
2022-08-03T02:51:00.720Z,100.00
2022-08-03T02:53:34.587Z,100.00
2022-08-03T02:56:08.259Z,100.00
2022-08-03T02:58:43.985Z,100.00
2022-08-03T03:01:17.369Z,100.00
2022-08-03T03:03:52.064Z,100.00
2022-08-03T03:06:27.394Z,100.00
2022-08-03T03:09:02.265Z,100.00
2022-08-03T03:11:35.580Z,100.00
2022-08-03T03:14:10.815Z,100.00
2022-08-03T03:16:44.688Z,100.00
2022-08-03T03:19:19.742Z,100.00
2022-08-03T03:21:53.108Z,100.00
2022-08-03T03:24:26.217Z,100.00
2022-08-03T03:27:00.571Z,100.00
2022-08-03T03:29:36.522Z,100.00
2022-08-03T03:32:09.811Z,100.00
2022-08-03T03:34:44.299Z,100.00
2022-08-03T03:37:17.315Z,100.00
2022-08-03T03:39:50.881Z,100.00
2022-08-03T03:42:24.072Z,100.00
2022-08-03T03:44:57.039Z,100.00
2022-08-03T03:47:32.712Z,100.00
2022-08-03T03:50:11.206Z,100.00
2022-08-03T03:52:44.389Z,100.00
2022-08-03T03:55:19.973Z,100.00
2022-08-03T03:57:56.275Z,100.00
2022-08-03T04:00:29.031Z,100.00
2022-08-03T04:03:02.121Z,100.00
2022-08-03T04:05:52.587Z,100.00
2022-08-03T04:08:43.967Z,100.00
2022-08-03T04:11:30.096Z,100.00
2022-08-03T04:14:18.535Z,100.00
2022-08-03T04:17:01.171Z,100.00
2022-08-03T04:19:43.901Z,100.00
2022-08-03T04:22:20.987Z,100.00
2022-08-03T04:24:58.461Z,100.00
2022-08-03T04:27:35.314Z,100.00
2022-08-03T04:30:10.480Z,100.00
2022-08-03T04:32:46.039Z,100.00
2022-08-03T04:35:19.991Z,100.00
2022-08-03T04:37:54.504Z,100.00
2022-08-03T04:40:39.796Z,100.00
2022-08-03T04:43:14.289Z,100.00
2022-08-03T04:45:52.818Z,100.00
2022-08-03T04:48:25.909Z,100.00
2022-08-03T04:51:00.744Z,100.00
2022-08-03T04:53:33.880Z,100.00
2022-08-03T04:56:07.953Z,100.00
2022-08-03T04:58:40.781Z,100.00
2022-08-03T05:01:13.608Z,100.00
2022-08-03T05:03:46.585Z,100.00
2022-08-03T05:06:19.463Z,100.00
2022-08-03T05:08:53.929Z,100.00
2022-08-03T05:11:27.004Z,100.00
2022-08-03T05:13:59.865Z,100.00
2022-08-03T05:16:33.207Z,100.00
2022-08-03T05:19:06.074Z,100.00
2022-08-03T05:21:41.705Z,100.00
2022-08-03T05:24:14.596Z,100.00
2022-08-03T05:26:48.988Z,100.00
2022-08-03T05:29:21.827Z,100.00
2022-08-03T05:31:54.789Z,100.00
2022-08-03T05:34:27.777Z,100.00
2022-08-03T05:37:00.608Z,100.00
2022-08-03T05:39:33.408Z,100.00
2022-08-03T05:42:06.432Z,100.00
2022-08-03T05:44:39.368Z,100.00
2022-08-03T05:47:12.331Z,100.00
2022-08-03T05:49:45.303Z,100.00
2022-08-03T05:52:18.920Z,100.00
2022-08-03T05:54:56.187Z,100.00
2022-08-03T05:57:27.274Z,100.00
2022-08-03T06:00:00.317Z,100.00
2022-08-03T06:02:35.358Z,100.00
2022-08-03T06:05:09.273Z,100.00
2022-08-03T06:07:43.047Z,100.00
2022-08-03T06:10:37.095Z,100.00
2022-08-03T06:12:51.501Z,100.00
2022-08-03T06:15:25.990Z,100.00
2022-08-03T06:18:01.852Z,100.00
2022-08-03T06:20:33.369Z,100.00
2022-08-03T06:23:06.222Z,100.00
2022-08-03T06:25:39.376Z,100.00
2022-08-03T06:28:35.171Z,100.00
2022-08-03T06:30:48.641Z,100.00
2022-08-03T06:33:21.732Z,99.54
2022-08-03T06:35:54.966Z,97.93
2022-08-03T06:38:27.794Z,97.93
2022-08-03T06:41:00.495Z,97.77
2022-08-03T06:43:35.898Z,95.67
2022-08-03T06:46:08.879Z,96.07
2022-08-03T06:48:41.774Z,94.61
2022-08-03T06:51:15.364Z,93.20
2022-08-03T06:53:48.321Z,92.92
2022-08-03T06:56:21.313Z,91.55
2022-08-03T06:58:54.196Z,91.71
2022-08-03T07:01:27.072Z,92.29
2022-08-03T07:04:00.926Z,92.29
2022-08-03T07:06:32.950Z,91.45
2022-08-03T07:09:05.885Z,92.26
2022-08-03T07:11:38.817Z,92.74
2022-08-03T07:14:12.154Z,92.38
2022-08-03T07:16:44.944Z,92.40
2022-08-03T07:19:17.981Z,90.55
2022-08-03T07:21:50.807Z,90.54
2022-08-03T07:24:25.415Z,90.42
2022-08-03T07:26:59.838Z,90.08
2022-08-03T07:29:34.812Z,89.29
2022-08-03T07:32:07.958Z,89.00
2022-08-03T07:34:41.351Z,88.56
2022-08-03T07:37:14.138Z,88.41
2022-08-03T07:39:46.918Z,87.50
2022-08-03T07:42:19.864Z,88.51
2022-08-03T07:44:52.804Z,87.47
2022-08-03T07:47:35.693Z,86.83
2022-08-03T07:50:03.678Z,86.36
2022-08-03T07:52:50.031Z,85.48
2022-08-03T07:55:25.773Z,85.15
2022-08-03T07:58:14.746Z,84.57
2022-08-03T08:00:47.928Z,84.19
2022-08-03T08:03:22.147Z,83.01
2022-08-03T08:05:55.515Z,83.71
2022-08-03T08:08:28.530Z,83.69
2022-08-03T08:11:01.416Z,83.70
2022-08-03T08:13:34.966Z,83.34
2022-08-03T08:16:08.432Z,81.52
2022-08-03T08:18:41.573Z,80.96
2022-08-03T08:21:14.581Z,80.79
2022-08-03T08:23:55.602Z,80.74
2022-08-03T08:26:21.915Z,80.33
2022-08-03T08:28:55.095Z,79.25
2022-08-03T08:31:28.306Z,78.51
2022-08-03T08:34:04.625Z,78.51
2022-08-03T08:36:38.444Z,76.99
2022-08-03T08:39:12.428Z,76.34
2022-08-03T08:41:49.614Z,75.24
2022-08-03T08:44:21.772Z,74.47
2022-08-03T08:46:56.101Z,73.93
2022-08-03T08:49:29.622Z,73.58
2022-08-03T08:52:04.408Z,74.95
2022-08-03T08:54:41.802Z,75.60
2022-08-03T08:57:33.624Z,75.88
2022-08-03T08:59:52.378Z,76.68
2022-08-03T09:02:26.513Z,73.50
2022-08-03T09:05:04.029Z,72.67
2022-08-03T09:07:35.514Z,72.48
2022-08-03T09:10:13.296Z,71.98
2022-08-03T09:12:48.381Z,71.86
2022-08-03T09:15:27.397Z,71.08
2022-08-03T09:18:02.922Z,69.30
2022-08-03T09:20:37.512Z,68.03
2022-08-03T09:23:51.882Z,67.73
2022-08-03T09:25:46.796Z,67.87
2022-08-03T09:28:57.903Z,68.84
2022-08-03T09:31:02.361Z,69.01
2022-08-03T09:33:36.102Z,68.03
2022-08-03T09:36:09.435Z,67.90
2022-08-03T09:38:42.299Z,68.18
2022-08-03T09:41:20.140Z,68.82
2022-08-03T09:43:54.986Z,68.56
2022-08-03T09:46:29.476Z,67.85
2022-08-03T09:49:15.040Z,68.28
2022-08-03T09:52:31.329Z,68.02
2022-08-03T09:54:34.438Z,67.66
2022-08-03T09:57:07.583Z,67.47
2022-08-03T09:59:41.628Z,66.36
2022-08-03T10:02:29.565Z,64.88
2022-08-03T10:05:02.520Z,63.33
2022-08-03T10:07:45.823Z,62.41
2022-08-03T10:10:29.080Z,61.96
2022-08-03T10:12:54.489Z,61.96
2022-08-03T10:16:23.840Z,61.66
2022-08-03T10:18:03.095Z,60.97
2022-08-03T10:20:43.258Z,61.83
2022-08-03T10:23:18.439Z,62.08
2022-08-03T10:25:55.323Z,61.45
2022-08-03T10:28:29.614Z,61.15
2022-08-03T10:31:02.817Z,62.23
2022-08-03T10:33:51.416Z,62.52
2022-08-03T10:36:16.603Z,62.35
2022-08-03T10:38:56.759Z,63.18
2022-08-03T10:41:33.481Z,62.33
2022-08-03T10:44:14.556Z,62.94
2022-08-03T10:46:50.647Z,62.96
2022-08-03T10:49:34.301Z,63.04
2022-08-03T10:51:58.896Z,62.59
2022-08-03T10:55:03.332Z,62.22
2022-08-03T10:57:58.902Z,61.27
2022-08-03T11:00:35.032Z,60.69
2022-08-03T11:03:11.727Z,60.19
2022-08-03T11:05:48.455Z,59.06
2022-08-03T11:08:31.773Z,57.17
2022-08-03T11:11:25.171Z,55.95
2022-08-03T11:14:23.018Z,56.80
2022-08-03T11:17:14.111Z,57.18
2022-08-03T11:19:57.432Z,55.80
2022-08-03T11:22:28.498Z,55.53
2022-08-03T11:25:01.980Z,54.71
2022-08-03T11:27:36.526Z,55.74
2022-08-03T11:30:28.617Z,55.70
2022-08-03T11:33:02.232Z,55.39
2022-08-03T11:35:36.948Z,55.66
2022-08-03T11:38:11.081Z,55.19
2022-08-03T11:40:48.044Z,54.56
2022-08-03T11:43:39.502Z,55.01
2022-08-03T11:46:16.427Z,54.33
2022-08-03T11:48:52.502Z,54.30
2022-08-03T11:51:28.209Z,54.80
2022-08-03T11:54:07.487Z,55.54
2022-08-03T11:56:50.024Z,53.94
2022-08-03T11:59:35.058Z,54.00
2022-08-03T12:02:16.717Z,54.21
2022-08-03T12:05:01.704Z,54.77
2022-08-03T12:08:03.273Z,53.88
2022-08-03T12:10:15.842Z,54.87
2022-08-03T12:12:49.410Z,56.58
2022-08-03T12:15:33.959Z,57.43
2022-08-03T12:18:18.648Z,58.14
2022-08-03T12:20:54.598Z,58.79
2022-08-03T12:23:28.988Z,59.84
2022-08-03T12:26:11.239Z,60.69
2022-08-03T12:28:51.292Z,61.14
2022-08-03T12:31:25.113Z,60.65
2022-08-03T12:34:04.314Z,60.36
2022-08-03T12:36:39.547Z,60.58
2022-08-03T12:39:12.575Z,60.78
2022-08-03T12:41:45.394Z,60.96
2022-08-03T12:44:18.305Z,60.86
2022-08-03T12:46:55.813Z,61.07
2022-08-03T12:49:30.432Z,61.37
2022-08-03T12:52:07.406Z,61.31
2022-08-03T12:54:39.264Z,60.47
2022-08-03T12:57:15.997Z,60.79
2022-08-03T12:59:53.031Z,60.53
2022-08-03T13:02:28.033Z,60.63
2022-08-03T13:05:00.988Z,60.87
2022-08-03T13:07:46.305Z,61.25
2022-08-03T13:10:35.432Z,61.79
2022-08-03T13:13:09.131Z,61.81
2022-08-03T13:15:47.813Z,61.63
2022-08-03T13:18:17.270Z,62.04
2022-08-03T13:20:50.660Z,61.99
2022-08-03T13:23:23.776Z,62.46
2022-08-03T13:25:56.650Z,62.38
2022-08-03T13:28:29.503Z,62.44
2022-08-03T13:31:02.787Z,63.01
2022-08-03T13:33:39.314Z,63.50
2022-08-03T13:36:12.244Z,63.96
2022-08-03T13:38:45.491Z,64.48
2022-08-03T13:41:18.637Z,64.34
2022-08-03T13:44:12.038Z,64.34
2022-08-03T13:46:28.098Z,64.75
2022-08-03T13:49:01.019Z,64.52
2022-08-03T13:51:34.540Z,64.33
2022-08-03T13:54:07.637Z,64.64
2022-08-03T13:56:40.791Z,64.39
2022-08-03T13:59:13.811Z,64.12
2022-08-03T14:01:55.255Z,64.95
2022-08-03T14:04:22.785Z,65.93
2022-08-03T14:06:55.775Z,66.93
2022-08-03T14:09:29.480Z,67.87
2022-08-03T14:12:08.378Z,69.36
2022-08-03T14:14:37.918Z,70.48
2022-08-03T14:17:10.837Z,71.75
2022-08-03T14:19:53.218Z,72.51
2022-08-03T14:22:19.759Z,72.85
2022-08-03T14:24:52.603Z,73.28
2022-08-03T14:27:26.054Z,73.45
2022-08-03T14:30:00.353Z,73.73
2022-08-03T14:32:33.610Z,74.17
2022-08-03T14:35:07.335Z,74.61
2022-08-03T14:37:40.618Z,74.61
2022-08-03T14:40:13.552Z,74.60
2022-08-03T14:42:46.759Z,73.67
2022-08-03T14:45:20.757Z,73.06
2022-08-03T14:50:24.947Z,72.36
2022-08-03T14:50:42.910Z,72.38
2022-08-03T14:53:06.750Z,72.92
2022-08-03T14:55:50.929Z,73.69
2022-08-03T14:58:21.173Z,74.37
2022-08-03T15:00:49.593Z,75.58
2022-08-03T15:03:25.150Z,76.31
2022-08-03T15:05:59.198Z,76.97
2022-08-03T15:08:33.072Z,77.51
2022-08-03T15:11:06.310Z,78.54
2022-08-03T15:13:39.696Z,79.26
2022-08-03T15:16:12.485Z,80.05
2022-08-03T15:18:45.410Z,79.60
2022-08-03T15:21:46.609Z,79.33
2022-08-03T15:23:53.116Z,78.95
2022-08-03T15:26:30.954Z,78.73
2022-08-03T15:29:01.428Z,79.07
2022-08-03T15:31:34.723Z,79.25
2022-08-03T15:34:07.602Z,79.74
2022-08-03T15:36:40.453Z,80.55
2022-08-03T15:39:13.496Z,81.07
2022-08-03T15:41:46.416Z,81.43
2022-08-03T15:44:22.838Z,81.90
2022-08-03T15:46:55.873Z,82.14
2022-08-03T15:49:28.824Z,82.46
2022-08-03T15:52:01.764Z,82.91
2022-08-03T15:54:34.855Z,83.50
2022-08-03T15:57:08.344Z,83.93
2022-08-03T15:59:41.373Z,84.26
2022-08-03T16:02:14.709Z,84.44
2022-08-03T16:04:47.993Z,84.92
2022-08-03T16:07:22.806Z,84.59
2022-08-03T16:09:56.123Z,83.81
2022-08-03T16:12:29.297Z,83.35
2022-08-03T16:15:02.525Z,83.04
2022-08-03T16:17:35.927Z,82.91
2022-08-03T16:20:29.077Z,83.04
2022-08-03T16:22:50.268Z,83.10
2022-08-03T16:25:23.087Z,83.28
2022-08-03T16:28:07.308Z,83.69
2022-08-03T16:30:30.899Z,84.08
2022-08-03T16:33:05.494Z,84.12
2022-08-03T16:35:38.826Z,84.37
2022-08-03T16:38:16.543Z,84.52
2022-08-03T16:40:47.363Z,84.82
2022-08-03T16:43:22.692Z,85.21
2022-08-03T16:45:55.645Z,85.54
2022-08-03T16:48:28.485Z,85.77
2022-08-03T16:51:01.393Z,86.21
2022-08-03T16:54:05.632Z,86.50
2022-08-03T16:56:10.567Z,86.85
2022-08-03T16:58:44.379Z,87.05
2022-08-03T17:01:21.805Z,87.18
2022-08-03T17:04:02.411Z,87.32
2022-08-03T17:06:33.877Z,87.46
2022-08-03T17:09:10.135Z,87.67
2022-08-03T17:11:47.708Z,87.83
2022-08-03T17:14:28.565Z,88.06
2022-08-03T17:17:06.786Z,88.26
2022-08-03T17:19:42.155Z,88.40
2022-08-03T17:22:21.893Z,88.67
2022-08-03T17:24:55.993Z,89.00
2022-08-03T17:28:49.513Z,89.30
2022-08-03T17:30:09.720Z,89.51
2022-08-03T17:32:56.977Z,89.84
2022-08-03T17:35:21.478Z,89.94
2022-08-03T17:38:03.275Z,89.94
2022-08-03T17:40:29.490Z,91.33
2022-08-03T17:44:16.654Z,91.33
2022-08-03T17:45:52.330Z,91.78
2022-08-03T17:48:18.449Z,91.78
2022-08-03T17:50:55.189Z,91.95
2022-08-03T17:53:33.229Z,92.15
2022-08-03T17:56:42.414Z,92.33
2022-08-03T17:59:13.696Z,92.48
2022-08-03T18:02:29.581Z,92.67
2022-08-03T18:05:16.499Z,92.89
2022-08-03T18:08:00.884Z,93.29
2022-08-03T18:10:29.252Z,93.56
2022-08-03T18:13:13.870Z,93.77
2022-08-03T18:16:02.867Z,94.21
2022-08-03T18:18:43.029Z,94.21
2022-08-03T18:21:16.946Z,93.86
2022-08-03T18:23:52.815Z,93.78
2022-08-03T18:26:26.710Z,93.72
2022-08-03T18:29:00.249Z,93.71
2022-08-03T18:32:02.613Z,93.65
2022-08-03T18:34:19.854Z,93.45
2022-08-03T18:36:48.818Z,92.99
2022-08-03T18:39:21.919Z,92.99
2022-08-03T18:41:54.905Z,92.80
2022-08-03T18:44:52.602Z,92.80
2022-08-03T18:47:23.029Z,92.48
2022-08-03T18:50:12.516Z,92.09
2022-08-03T18:52:57.788Z,92.09
2022-08-03T18:55:36.484Z,91.98
2022-08-03T18:58:19.412Z,92.00
2022-08-03T19:02:00.387Z,92.00
2022-08-03T19:03:56.143Z,91.97
2022-08-03T19:06:31.511Z,92.08
2022-08-03T19:09:13.310Z,92.08
2022-08-03T19:12:14.151Z,92.47
2022-08-03T19:14:31.438Z,92.73
2022-08-03T19:19:47.711Z,93.08
2022-08-03T19:22:22.628Z,93.37
2022-08-03T19:24:58.087Z,93.71
2022-08-03T19:27:34.612Z,93.96
2022-08-03T19:30:21.973Z,94.26
2022-08-03T19:32:48.266Z,94.46
2022-08-03T19:35:51.952Z,94.79
2022-08-03T19:37:55.509Z,94.99
2022-08-03T19:40:33.260Z,95.21
2022-08-03T19:43:11.045Z,95.44
2022-08-03T19:46:04.418Z,95.60
2022-08-03T19:48:24.129Z,95.78
2022-08-03T19:51:00.059Z,96.06
2022-08-03T19:53:37.235Z,96.46
2022-08-03T19:56:12.662Z,96.78
2022-08-03T19:58:45.725Z,96.97
2022-08-03T20:01:21.657Z,97.20
2022-08-03T20:03:55.186Z,97.34
2022-08-03T20:06:28.547Z,97.48
2022-08-03T20:09:01.890Z,97.58
2022-08-03T20:11:45.113Z,97.62
2022-08-03T20:14:13.318Z,97.76
2022-08-03T20:16:49.343Z,97.96
2022-08-03T20:19:23.057Z,98.02
2022-08-03T20:21:56.315Z,98.02
2022-08-03T20:24:35.267Z,98.00
2022-08-03T20:27:10.195Z,97.95
2022-08-03T20:30:07.670Z,98.03
2022-08-03T20:32:24.729Z,97.94
2022-08-03T20:34:58.648Z,98.06
2022-08-03T20:37:31.684Z,98.29
2022-08-03T20:40:07.744Z,98.35
2022-08-03T20:42:40.739Z,98.48
2022-08-03T20:46:00.172Z,98.70
2022-08-03T20:47:50.613Z,98.88
2022-08-03T20:50:24.092Z,99.25
2022-08-03T20:52:58.909Z,99.63
2022-08-03T20:55:53.772Z,99.85
2022-08-03T20:58:07.894Z,100.00
2022-08-03T21:00:42.577Z,100.00
2022-08-03T21:03:16.390Z,100.00
2022-08-03T21:05:53.622Z,100.00
2022-08-03T21:08:27.907Z,100.00
2022-08-03T21:11:01.937Z,100.00
2022-08-03T21:13:01.991Z,92.91
2022-08-03T21:13:59.257Z,100.00
2022-08-03T21:16:34.030Z,100.00
2022-08-03T21:19:06.915Z,100.00
2022-08-03T21:21:41.064Z,100.00
2022-08-03T21:24:13.460Z,100.00
2022-08-03T21:26:48.569Z,100.00
2022-08-03T21:29:22.960Z,100.00
2022-08-03T21:31:56.366Z,100.00
2022-08-03T21:34:29.669Z,100.00
2022-08-03T21:37:02.911Z,100.00
2022-08-03T21:39:37.279Z,100.00
2022-08-03T21:42:11.663Z,100.00
2022-08-03T21:44:44.943Z,100.00
2022-08-03T21:47:18.086Z,100.00
2022-08-03T21:50:07.692Z,100.00
2022-08-03T21:52:29.070Z,100.00
2022-08-03T21:55:05.838Z,100.00
2022-08-03T21:57:42.841Z,100.00
2022-08-03T22:00:21.765Z,100.00
2022-08-03T22:03:00.360Z,100.00
2022-08-03T22:05:43.281Z,100.00
2022-08-03T22:08:10.033Z,99.90
2022-08-03T22:10:45.608Z,99.66
2022-08-03T22:13:43.603Z,99.53
2022-08-03T22:15:56.511Z,99.39
2022-08-03T22:18:29.719Z,99.36
2022-08-03T22:21:03.245Z,99.39
2022-08-03T22:23:41.108Z,99.37
2022-08-03T22:26:18.065Z,99.21
2022-08-03T22:28:52.892Z,98.94
2022-08-03T22:31:30.905Z,98.69
2022-08-03T22:34:01.307Z,98.59
2022-08-03T22:36:34.826Z,98.56
2022-08-03T22:39:07.645Z,98.34
2022-08-03T22:41:40.421Z,98.31
2022-08-03T22:44:15.126Z,98.16
2022-08-03T22:46:48.166Z,98.29
2022-08-03T22:49:22.008Z,98.19
2022-08-03T22:51:55.404Z,98.21
2022-08-03T22:54:28.223Z,98.22
2022-08-03T22:57:01.591Z,98.10
2022-08-03T22:59:42.116Z,97.85
2022-08-03T23:02:21.773Z,97.72
2022-08-03T23:04:58.049Z,97.56
2022-08-03T23:07:34.685Z,97.40
2022-08-03T23:10:14.129Z,97.09
2022-08-03T23:12:50.749Z,97.06
2022-08-03T23:15:26.751Z,97.15
2022-08-03T23:18:00.184Z,97.23
2022-08-03T23:20:33.688Z,97.00
2022-08-03T23:23:06.631Z,97.03
2022-08-03T23:25:41.594Z,97.01
2022-08-03T23:28:19.313Z,96.97
2022-08-03T23:30:52.973Z,96.93
2022-08-03T23:33:25.842Z,97.00
2022-08-03T23:36:27.717Z,96.98
2022-08-03T23:38:38.368Z,97.03
2022-08-03T23:41:11.856Z,97.11
2022-08-03T23:43:51.817Z,97.23
2022-08-03T23:46:21.115Z,97.20
2022-08-03T23:48:56.533Z,97.07
2022-08-03T23:51:45.575Z,97.13
2022-08-03T23:54:29.186Z,97.31
2022-08-03T23:57:06.596Z,97.20
